createdAt,value
2022-09-12T00:00:23.633Z,7.23
2022-09-12T00:05:48.798Z,8.17
2022-09-12T00:11:13.171Z,8.37
2022-09-12T00:16:37.246Z,7.97
2022-09-12T00:22:02.239Z,13.53
2022-09-12T00:27:25.335Z,13.17
2022-09-12T00:32:49.290Z,12.27
2022-09-12T00:38:14.616Z,10.60
2022-09-12T00:43:40.673Z,15.23
2022-09-12T00:49:07.161Z,18.67
2022-09-12T00:54:38.972Z,16.97
2022-09-12T01:00:09.750Z,16.97
2022-09-12T01:05:35.257Z,21.17
2022-09-12T01:10:59.775Z,16.83
2022-09-12T01:16:22.911Z,16.30
2022-09-12T01:21:51.052Z,19.83
2022-09-12T01:27:34.920Z,19.63
2022-09-12T01:33:31.431Z,18.03
2022-09-12T01:39:00.375Z,19.83
2022-09-12T01:44:29.958Z,18.57
2022-09-12T01:49:57.700Z,20.90
2022-09-12T01:55:26.125Z,17.77
2022-09-12T02:00:54.336Z,21.00
2022-09-12T02:06:20.894Z,19.17
2022-09-12T02:11:45.607Z,21.53
2022-09-12T02:17:11.845Z,17.90
2022-09-12T02:22:35.210Z,23.73
2022-09-12T02:28:03.284Z,22.03
2022-09-12T02:33:28.678Z,26.57
2022-09-12T02:38:51.880Z,17.77
2022-09-12T02:44:16.305Z,23.17
2022-09-12T02:49:39.821Z,20.07
2022-09-12T02:55:03.252Z,21.77
2022-09-12T03:00:28.293Z,22.93
2022-09-12T03:05:56.917Z,20.93
2022-09-12T03:11:27.330Z,20.83
2022-09-12T03:16:57.341Z,18.20
2022-09-12T03:22:23.421Z,20.10
2022-09-12T03:27:50.717Z,26.27
2022-09-12T03:33:16.245Z,22.33
2022-09-12T03:38:39.551Z,20.50
2022-09-12T03:44:02.846Z,20.10
2022-09-12T03:49:27.254Z,25.10
2022-09-12T03:54:51.485Z,21.70
2022-09-12T04:00:19.616Z,24.33
2022-09-12T04:06:06.959Z,22.03
2022-09-12T04:11:32.223Z,22.03
2022-09-12T04:16:55.374Z,20.33
2022-09-12T04:22:21.236Z,22.13
2022-09-12T04:27:47.057Z,20.03
2022-09-12T04:33:10.174Z,22.43
2022-09-12T04:38:34.668Z,21.97
2022-09-12T04:43:59.313Z,22.83
2022-09-12T04:49:22.342Z,26.83
2022-09-12T04:54:46.858Z,27.63
2022-09-12T05:00:14.187Z,24.67
2022-09-12T05:05:37.249Z,30.23
2022-09-12T05:11:05.728Z,25.73
2022-09-12T05:16:29.818Z,26.13
2022-09-12T05:21:52.976Z,28.03
2022-09-12T05:27:17.430Z,22.90
2022-09-12T05:32:40.920Z,24.20
2022-09-12T05:38:03.948Z,27.67
2022-09-12T05:43:28.350Z,20.10
2022-09-12T05:48:55.635Z,30.27
2022-09-12T05:54:20.701Z,28.90
2022-09-12T05:59:47.619Z,34.97
2022-09-12T06:05:10.703Z,27.40
2022-09-12T06:10:35.277Z,25.90
2022-09-12T06:16:05.349Z,28.97
2022-09-12T06:21:30.738Z,28.50
2022-09-12T06:26:54.142Z,33.33
2022-09-12T06:32:18.662Z,36.27
2022-09-12T06:37:41.791Z,34.57
2022-09-12T06:43:05.602Z,25.30
2022-09-12T06:48:30.656Z,26.60
2022-09-12T06:53:55.942Z,30.57
2022-09-12T06:59:19.985Z,31.27
2022-09-12T07:04:49.748Z,24.70
2022-09-12T07:10:12.905Z,22.67
2022-09-12T07:15:37.080Z,34.17
2022-09-12T07:21:02.629Z,24.80
2022-09-12T07:26:27.963Z,23.70
2022-09-12T07:31:51.077Z,21.30
2022-09-12T07:37:15.510Z,22.63
2022-09-12T07:42:38.508Z,21.98
2022-09-12T07:48:01.611Z,20.98
2022-09-12T07:53:26.045Z,20.63
2022-09-12T07:58:49.539Z,22.73
2022-09-12T08:04:12.613Z,15.73
2022-09-12T08:09:37.319Z,17.15
2022-09-12T08:15:00.620Z,17.65
2022-09-12T08:20:28.111Z,18.67
2022-09-12T08:25:52.856Z,21.50
2022-09-12T08:31:17.604Z,13.57
2022-09-12T08:36:40.965Z,15.32
2022-09-12T08:47:40.137Z,15.27
2022-09-12T08:53:04.667Z,15.80
2022-09-12T08:58:30.198Z,17.83
2022-09-12T09:04:09.841Z,12.50
2022-09-12T09:09:42.985Z,12.18
2022-09-12T09:15:25.163Z,9.05
2022-09-12T09:20:50.720Z,10.95
2022-09-12T09:26:17.775Z,9.68
2022-09-12T09:31:42.855Z,9.70
2022-09-12T09:37:09.803Z,11.05
2022-09-12T09:42:39.764Z,14.38
2022-09-12T09:48:14.360Z,14.30
2022-09-12T09:53:47.729Z,9.90
2022-09-12T09:59:12.790Z,8.45
2022-09-12T10:04:41.498Z,13.48
2022-09-12T10:10:07.727Z,12.98
2022-09-12T10:15:30.822Z,17.63
2022-09-12T10:20:55.588Z,14.10
2022-09-12T10:26:20.790Z,9.43
2022-09-12T10:31:49.710Z,7.40
2022-09-12T10:37:20.613Z,10.32
2022-09-12T10:43:17.286Z,6.10
2022-09-12T10:48:40.382Z,10.95
2022-09-12T10:54:08.802Z,9.02
2022-09-12T10:59:39.028Z,11.38
2022-09-12T11:05:07.983Z,7.93
2022-09-12T11:10:43.750Z,11.00
2022-09-12T11:16:18.694Z,7.57
2022-09-12T11:21:53.745Z,10.90
2022-09-12T11:27:31.312Z,8.88
2022-09-12T11:33:05.837Z,6.72
2022-09-12T11:38:43.150Z,6.78
2022-09-12T11:44:14.884Z,11.68
2022-09-12T11:49:41.555Z,7.43
2022-09-12T11:55:07.948Z,7.28
2022-09-12T12:00:33.899Z,6.90
2022-09-12T12:06:00.319Z,9.93
2022-09-12T12:11:31.304Z,7.10
2022-09-12T12:16:55.766Z,8.48
2022-09-12T12:22:20.559Z,8.93
2022-09-12T12:27:49.458Z,8.25
2022-09-12T12:33:46.041Z,4.82
2022-09-12T12:39:55.588Z,7.50
2022-09-12T12:46:04.779Z,7.65
2022-09-12T12:51:33.091Z,6.22
2022-09-12T12:57:04.486Z,3.78
2022-09-12T13:02:31.841Z,4.15
2022-09-12T13:07:59.624Z,2.45
2022-09-12T13:13:25.999Z,4.82
2022-09-12T13:18:50.420Z,5.18
2022-09-12T13:24:18.516Z,2.30
2022-09-12T13:29:42.369Z,5.45
2022-09-12T13:35:11.968Z,4.72
2022-09-12T13:40:42.561Z,3.85
2022-09-12T13:46:08.109Z,4.93
2022-09-12T13:51:32.428Z,3.83
2022-09-12T13:56:56.905Z,5.53
2022-09-12T14:02:21.477Z,4.45
2022-09-12T14:07:55.258Z,7.35
2022-09-12T14:13:21.587Z,6.20
2022-09-12T14:18:45.684Z,3.83
2022-09-12T14:24:10.769Z,4.68
2022-09-12T14:29:35.219Z,4.07
2022-09-12T14:35:14.851Z,8.40
2022-09-12T14:40:42.425Z,4.82
2022-09-12T14:46:08.990Z,3.45
2022-09-12T14:51:34.833Z,2.55
2022-09-12T14:56:59.711Z,3.72
2022-09-12T15:02:27.171Z,3.53
2022-09-12T15:07:55.253Z,4.82
2022-09-12T15:13:20.738Z,3.60
2022-09-12T15:18:52.967Z,3.50
2022-09-12T15:24:16.170Z,3.28
2022-09-12T15:29:39.470Z,4.68
2022-09-12T15:35:04.023Z,4.40
2022-09-12T15:40:27.367Z,2.20
2022-09-12T15:45:54.945Z,4.47
2022-09-12T15:51:21.027Z,2.13
2022-09-12T15:56:44.017Z,2.75
2022-09-12T16:02:07.295Z,3.13
2022-09-12T16:07:31.980Z,5.03
2022-09-12T16:12:55.164Z,4.88
2022-09-12T16:18:18.657Z,3.88
2022-09-12T16:23:48.073Z,5.30
2022-09-12T16:29:12.764Z,4.05
2022-09-12T16:34:35.856Z,3.30
2022-09-12T16:40:00.378Z,4.88
2022-09-12T16:45:23.488Z,7.30
2022-09-12T16:50:46.494Z,3.58
2022-09-12T16:56:11.023Z,6.95
2022-09-12T17:01:34.921Z,10.15
2022-09-12T17:06:59.445Z,4.80
2022-09-12T17:12:24.557Z,4.97
2022-09-12T17:17:52.175Z,7.03
2022-09-12T17:23:15.226Z,3.88
2022-09-12T17:28:40.789Z,3.40
2022-09-12T17:34:04.260Z,5.85
2022-09-12T17:39:27.691Z,4.30
2022-09-12T17:44:54.957Z,8.40
2022-09-12T17:50:31.426Z,11.23
2022-09-12T17:55:55.454Z,5.75
2022-09-12T18:01:37.689Z,5.68
2022-09-12T18:07:00.778Z,5.15
2022-09-12T18:12:24.087Z,15.60
2022-09-12T18:17:48.485Z,7.30
2022-09-12T18:23:11.565Z,6.75
2022-09-12T18:28:35.553Z,7.28
2022-09-12T18:34:01.038Z,7.95
2022-09-12T18:39:27.662Z,6.25
2022-09-12T18:44:51.311Z,7.55
2022-09-12T18:50:15.878Z,6.75
2022-09-12T18:55:38.902Z,6.18
2022-09-12T19:01:09.667Z,9.23
2022-09-12T19:06:35.863Z,8.10
2022-09-12T19:11:58.942Z,7.15
2022-09-12T19:17:21.980Z,7.78
2022-09-12T19:22:46.488Z,8.60
2022-09-12T19:28:09.600Z,13.68
2022-09-12T19:33:32.719Z,8.50
2022-09-12T19:38:57.373Z,7.35
2022-09-12T19:44:20.512Z,14.98
2022-09-12T19:49:43.638Z,5.65
2022-09-12T19:55:09.818Z,9.07
2022-09-12T20:00:33.687Z,8.48
2022-09-12T20:06:03.023Z,8.15
2022-09-12T20:11:27.414Z,9.38
2022-09-12T20:16:50.539Z,10.98
2022-09-12T20:22:13.589Z,10.38
2022-09-12T20:27:38.061Z,12.98
2022-09-12T20:33:01.126Z,8.77
2022-09-12T20:38:24.284Z,10.60
2022-09-12T20:43:52.320Z,9.18
2022-09-12T20:49:15.359Z,6.03
2022-09-12T20:54:38.435Z,7.75
2022-09-12T21:00:03.517Z,9.32
2022-09-12T21:05:26.596Z,11.15
2022-09-12T21:10:49.668Z,9.18
2022-09-12T21:16:15.690Z,9.65
2022-09-12T21:21:38.816Z,10.77
2022-09-12T21:27:04.345Z,8.40
2022-09-12T21:32:34.759Z,17.60
2022-09-12T21:37:58.278Z,7.47
2022-09-12T21:43:21.330Z,11.15
2022-09-12T21:48:45.759Z,10.30
2022-09-12T21:54:09.043Z,11.77
2022-09-12T21:59:32.085Z,10.70
2022-09-12T22:04:56.680Z,9.77
2022-09-12T22:10:19.756Z,9.57
2022-09-12T22:15:44.486Z,15.30
2022-09-12T22:21:12.293Z,9.80
2022-09-12T22:26:41.928Z,11.43
2022-09-12T22:32:05.240Z,13.27
2022-09-12T22:37:29.674Z,12.40
2022-09-12T22:42:55.216Z,30.17
2022-09-12T22:48:18.382Z,17.60
2022-09-12T22:53:43.396Z,11.60
2022-09-12T22:59:07.349Z,14.55
2022-09-12T23:04:30.879Z,20.13
2022-09-12T23:09:55.355Z,17.35
2022-09-12T23:15:18.385Z,18.55
2022-09-12T23:20:41.423Z,15.30
2022-09-12T23:26:08.045Z,16.88
2022-09-12T23:31:33.002Z,15.02
2022-09-12T23:36:56.292Z,10.98
2022-09-12T23:42:20.812Z,12.93
2022-09-12T23:47:43.895Z,9.43
2022-09-12T23:53:06.964Z,7.60
2022-09-12T23:58:31.428Z,9.55
